Sonic Adventure (DX): Time Rankings

Records: Times | Rings | Scores | Races | Bosses | Freestyle
Leaders: Times | Rings | Scores | Races | Bosses | Freestyle | Overall
Rank Player Percent Points Date
1 Gamepro011 99.3% 40 01-15-19
2 Sonicspeedruner 98.2% 101 01-15-19
3 Dashjump 94.4% 320 01-15-19
4 Jawzun 94.4% 322 01-15-19
5 DarkPolarNight 93.5% 372 01-15-19
6 drminus 91.3% 499 01-15-19
7 F-Man 91.2% 504 01-15-19
8 THC98 90.8% 529 01-15-19
9 ike6252 88.8% 642 01-15-19
10 Avento128bits 88.5% 663 01-15-19
11 francisco 88.3% 675 01-15-19
12 ethmar 87.7% 707 01-15-19
13 DarkspinesSonic 87.6% 710 01-15-19
14 Marth 87.6% 713 01-15-19
15 frankoredstrato 86.2% 794 01-15-19
16 TheRealShadnic 84.6% 888 01-15-19
17 chainchumper 84.4% 898 01-15-19
18 Paragod 83.5% 952 01-15-19
19 HyperSonic7701 83.2% 967 01-15-19
20 Calfd 82.8% 987 01-15-19
21 Coolfansonic 80.1% 1144 01-15-19
22 InferSaime 80.0% 1150 01-15-19
23 Stefan 78.7% 1226 01-15-19
24 xXMegaManXx 78.6% 1233 01-15-19
25 PfoSonic 78.2% 1254 01-15-19
26 bertin 76.4% 1359 01-15-19
27 yoshifan 76.0% 1384 01-15-19
28 Dave Cramer 74.4% 1473 01-15-19
29 RPGnutter 74.2% 1488 01-15-19
30 sonicam 72.5% 1584 01-15-19
31 Cybrax 72.2% 1601 01-15-19
32 Ring Rush 69.6% 1753 01-15-19
33 Nim 69.4% 1764 01-15-19
34 mike89 68.9% 1794 01-15-19
35 NintenDan 68.5% 1813 01-15-19
36 a_moustache 67.2% 1889 01-15-19
37 chaos shadow 65.3% 1998 01-15-19
37 Dekuboy 65.3% 1998 01-15-19
39 SkyLights 65.1% 2013 01-15-19
40 Combo 63.7% 2094 01-15-19
41 Niczur 62.6% 2158 01-15-19
42 SADXTryHard 61.4% 2227 01-15-19
43 P1 Pause 60.8% 2262 01-15-19
44 WeegeeZV 59.6% 2328 01-15-19
45 Groudon199 58.9% 2370 01-15-19
46 Game_Complete 58.2% 2408 01-15-19
47 AxlThunder 58.2% 2410 01-15-19
48 Shadow Jacky 58.1% 2414 01-15-19
49 VMU Player Banned 57.3% 2464 01-15-19
50 Thorn 56.9% 2485 01-15-19
51 SB737 55.8% 2549 01-15-19
52 The Knuckles Chao 55.6% 2557 01-15-19
53 Chao_Fan 55.4% 2570 01-15-19
54 SadisticMystic 55.4% 2572 01-15-19
55 Parax 55.1% 2590 01-15-19
56 Mastakirby 54.9% 2598 01-15-19
57 KinkyCadence 54.3% 2632 01-15-19
58 OmegaDJ 54.3% 2636 01-15-19
59 LittleBigness 54.2% 2638 01-15-19
60 mauserman 54.2% 2640 01-15-19
61 Psyknux 53.9% 2655 01-15-19
62 Auriman1 53.7% 2671 01-15-19
63 magnum12 53.5% 2679 01-15-19
64 Turbos 53.1% 2702 01-15-19
65 GerbilSoft 52.4% 2743 01-15-19
66 GreatStar 52.2% 2753 01-15-19
67 Webber3000 51.8% 2778 01-15-19
68 Hipertails12 51.0% 2823 01-15-19
69 N 50.8% 2838 01-15-19
70 James_Bertolli 48.7% 2956 01-15-19
71 Cream147 48.3% 2980 01-15-19
72 welldooder64 47.7% 3014 01-15-19
73 Skylace 47.6% 3021 01-15-19
74 Omega Rafael Santos 47.3% 3036 01-15-19
75 Quartz 47.3% 3041 01-15-19
76 Diamond 47.0% 3058 01-15-19
77 Psymar 46.9% 3059 01-15-19
78 SonicWinDX 46.2% 3100 01-15-19
79 teamblackarms 46.0% 3115 01-15-19
80 Cyan Ryan 45.3% 3152 01-15-19
81 Andrea Ritsu 45.2% 3157 01-15-19
82 buddychaos0415 45.0% 3171 01-15-19
83 SilverSonic 44.5% 3200 01-15-19
84 paulie9990 44.2% 3217 01-15-19
85 SilvertheAlmighty 43.8% 3239 01-15-19
86 itsPersonnal 43.4% 3263 01-15-19
87 metanightmare22 43.1% 3281 01-15-19
88 lordmetalsonic 40.9% 3408 01-15-19
89 Arch 40.5% 3433 01-15-19
90 Termon 39.7% 3479 01-15-19
91 videogamemaster777 39.6% 3481 01-15-19
92 supersonicfan 39.2% 3505 01-15-19
93 Drakodan 38.7% 3533 01-15-19
94 Kanimayo_Jp 38.5% 3546 01-15-19
95 LilZero 38.5% 3547 01-15-19
96 supersonic465 38.2% 3566 01-15-19
97 FuzZerd 38.1% 3568 01-15-19
98 JamminX42 37.6% 3596 01-15-19
99 eggFL 37.5% 3604 01-15-19
100 BigAL49 37.3% 3616 01-15-19
101 danieldude 36.8% 3643 01-15-19
102 Don 36.8% 3645 01-15-19
103 Siavash Tazari 35.9% 3696 01-15-19
104 Fr3nZy 35.6% 3711 01-15-19
105 f0rever_zer0 35.0% 3747 01-15-19
106 Cod4Scopes 34.7% 3763 01-15-19
107 LinksDarkArrows 34.0% 3806 01-15-19
108 Therio 33.7% 3821 01-15-19
109 Austinf 33.5% 3834 01-15-19
110 elecmouse101 33.2% 3854 01-15-19
111 Staf 32.9% 3872 01-15-19
112 MiStEr_ShAoLiN 32.5% 3893 01-15-19
113 Twilisailor 32.2% 3907 01-15-19
114 ModifiedMonkee 32.1% 3916 01-15-19
115 R3FR4G 32.1% 3918 01-15-19
116 videogamer1014 31.9% 3926 01-15-19
117 BrokenArthritis 31.9% 3927 01-15-19
118 Xia 31.5% 3953 01-15-19
119 AC-Tygo 31.2% 3965 01-15-19
120 welshmoose05 31.1% 3976 01-15-19
121 OddCook 30.4% 4013 01-15-19
122 The Great Lord Mick 30.1% 4031 01-15-19
123 Aitamen 29.6% 4058 01-15-19
124 Mcshuggets 29.6% 4062 01-15-19
125 Maxinfamily 29.5% 4064 01-15-19
126 Matt_TY 29.2% 4084 01-15-19
127 dabestgamer 28.9% 4099 01-15-19
127 joecoolgames 28.9% 4099 01-15-19
129 SuperBlitzCraig 28.5% 4126 01-15-19
130 Irregular Zero 28.3% 4133 01-15-19
131 CoEmpathy 28.0% 4155 01-15-19
132 Shadowthegreat 27.6% 4177 01-15-19
133 superjupi 27.5% 4181 01-15-19
134 SuperSonic101 27.5% 4182 01-15-19
135 Rolken 27.2% 4201 01-15-19
136 Zurggriff 27.1% 4207 01-15-19
137 thewaytodawnnn 26.9% 4218 01-15-19
138 Hunters13 26.7% 4227 01-15-19
139 sonamyfan666 26.7% 4229 01-15-19
140 koinu93 26.5% 4238 01-15-19
141 iarebored 26.4% 4244 01-15-19
142 Spinballwizard 26.3% 4249 01-15-19
143 SaviourDC 26.3% 4253 01-15-19
144 SonicKnuckles 26.2% 4254 01-15-19
145 EngiNerd 25.2% 4313 01-15-19
146 adf 25.1% 4319 01-15-19
147 Megaman EXE565 24.3% 4364 01-15-19
148 The T 24.1% 4375 01-15-19
149 Sonic Singularity 23.6% 4406 01-15-19
150 Platformer 23.2% 4430 01-15-19
151 timpkmn89 22.9% 4446 01-15-19
152 SeaWolf 22.9% 4448 01-15-19
153 Pokemonmaster888 22.9% 4449 01-15-19
154 Swift Hobo 22.4% 4475 01-15-19
155 Sondow 22.1% 4493 01-15-19
156 Rickyman48 21.7% 4516 01-15-19
157 KitsuneYamaro 21.4% 4531 01-15-19
158 FoxBoy 21.3% 4541 01-15-19
159 Sm4sh 20.8% 4567 01-15-19
160 TFEC Headshot 20.7% 4575 01-15-19
161 Kogen Player Banned 20.6% 4577 01-15-19
162 Jerzia 20.4% 4588 01-15-19
163 Starlight Sable 19.9% 4621 01-15-19
164 HyperSonic64 19.5% 4642 01-15-19
165 IsisDazs 19.3% 4652 01-15-19
166 crazy1993 19.1% 4664 01-15-19
167 Powerjohn25 19.1% 4668 01-15-19
168 andres430 19.0% 4673 01-15-19
169 SonicU260 18.0% 4730 01-15-19
170 MPit08 17.6% 4754 01-15-19
171 SonicAD 17.4% 4763 01-15-19
172 Swinkly 17.3% 4767 01-15-19
173 sonicd5 17.1% 4781 01-15-19
174 iSonicKid2K 16.9% 4790 01-15-19
175 dShadow 16.8% 4799 01-15-19
176 Cutiefox 16.4% 4823 01-15-19
177 Chawkk 16.3% 4827 01-15-19
178 Monkeh 16.0% 4846 01-15-19
179 Miles9999 15.9% 4850 01-15-19
180 Crispian 15.7% 4864 01-15-19
181 DaDude 15.2% 4892 01-15-19
182 Drflash55 15.0% 4901 01-15-19
183 Bass 14.9% 4908 01-15-19
184 Cruizer 14.8% 4916 01-15-19
185 Badlex727 14.7% 4921 01-15-19
185 Destroyer121121 14.7% 4921 01-15-19
187 superiorsonic 14.5% 4934 01-15-19
188 neaolas 14.4% 4937 01-15-19
189 zapp 14.3% 4944 01-15-19
190 Yish 14.3% 4945 01-15-19
191 UninspiredUsername 14.1% 4957 01-15-19
192 gamefreak1292 13.7% 4976 01-15-19
193 Cooljay 13.6% 4983 01-15-19
194 Sora_yx 13.2% 5006 01-15-19
195 Chaos_Overlord 12.8% 5032 01-15-19
196 GarnetPrincess 12.4% 5050 01-15-19
197 Valfore 12.3% 5059 01-15-19
198 Dage4Aquatic 11.9% 5083 01-15-19
199 soniccoloursunleashed 11.9% 5084 01-15-19
200 ShinigamiMachine 11.7% 5094 01-15-19
201 booo95 11.3% 5116 01-15-19
202 Sonicsuperstar1 11.2% 5120 01-15-19
203 sonicspeed 10.9% 5140 01-15-19
204 SirTobbii 10.9% 5141 01-15-19
205 FocusSight64 10.8% 5145 01-15-19
205 Werey 10.8% 5145 01-15-19
207 Mo Player Banned 10.6% 5157 01-15-19
208 Jua Rever 10.6% 5159 01-15-19
209 Venick409 9.6% 5214 01-15-19
210 Sithwarrior26 9.5% 5217 01-15-19
211 nman36 9.5% 5219 01-15-19
212 ingx24 9.0% 5247 01-15-19
213 CyberShadow 9.0% 5251 01-15-19
214 dekki1234 8.9% 5257 01-15-19
215 Fozer 8.6% 5272 01-15-19
216 Colomb_30 8.5% 5276 01-15-19
217 Egor305 8.4% 5282 01-15-19
218 Regano1000 8.3% 5291 01-15-19
219 1stKirbyever 8.0% 5305 01-15-19
220 douglas 8.0% 5306 01-15-19
221 nuckrieg 7.9% 5311 01-15-19
222 TimTH 7.7% 5322 01-15-19
223 Brian_pso 7.7% 5326 01-15-19
224 wheatrich 7.5% 5338 01-15-19
225 Zip 7.4% 5342 01-15-19
226 Th4tN1nj4Turtl3 7.4% 5343 01-15-19
227 TakaRikka 7.3% 5346 01-15-19
228 niscool 7.1% 5356 01-15-19
229 Mariosonic15 7.0% 5366 01-15-19
230 ieatatsonic 6.7% 5382 01-15-19
231 MStitomix 6.7% 5384 01-15-19
232 Triseena 6.6% 5386 01-15-19
233 HermitHelmet 6.6% 5388 01-15-19
234 Cort_pso 6.3% 5407 01-15-19
235 Artie 6.2% 5409 01-15-19
235 Got4n 6.2% 5409 01-15-19
237 BlankTH 6.0% 5424 01-15-19
238 Jose_15 5.9% 5426 01-15-19
239 SuperSonicfan9595 5.7% 5440 01-15-19
240 Richied 5.6% 5444 01-15-19
241 Ace747 5.5% 5451 01-15-19
242 HHNNBBHHN 5.4% 5457 01-15-19
243 Aiko 5.2% 5466 01-15-19
244 Paixii 5.2% 5467 01-15-19
245 slade23 5.0% 5482 01-15-19
246 BallzeH 4.9% 5486 01-15-19
246 Mankster101 4.9% 5486 01-15-19
248 FSSRandomvids 4.8% 5489 01-15-19
249 ArcticDragon 4.8% 5491 01-15-19
250 BecauseWarAnvil 4.8% 5492 01-15-19
250 PsyBorg 4.8% 5492 01-15-19
252 Jamixesa 4.7% 5496 01-15-19
253 Nickson98 4.6% 5502 01-15-19
254 Crydio 4.5% 5509 01-15-19
255 TheUltraBlur 4.4% 5514 01-15-19
256 MarewBFN 4.2% 5525 01-15-19
257 tal39h 4.2% 5526 01-15-19
258 stanski 4.2% 5528 01-15-19
259 ALundstrom10 4.1% 5529 01-15-19
260 knuckles_sonic8 3.9% 5541 01-15-19
261 Blue Infamy 3.9% 5544 01-15-19
262 p0ker 3.9% 5545 01-15-19
263 ErrortheCucco 3.7% 5555 01-15-19
264 Rikum22 3.6% 5558 01-15-19
265 sonic1001 3.5% 5566 01-15-19
266 TheChaosEmeraIds 3.5% 5569 01-15-19
267 syco1098 3.4% 5573 01-15-19
268 AJSIV 3.4% 5574 01-15-19
269 Sonic the Hedgehod16 3.3% 5577 01-15-19
270 ASINISTERTACO 3.2% 5584 01-15-19
271 sonicfan9 3.1% 5591 01-15-19
272 MK 2.9% 5599 01-15-19
273 themachoman202 2.9% 5600 01-15-19
274 Fivavoa 2.8% 5609 01-15-19
275 Mr. Jones 2.7% 5611 01-15-19
276 BlackArmsShadow 2.7% 5613 01-15-19
276 djmat 2.7% 5613 01-15-19
278 arcfx1985 2.7% 5614 01-15-19
279 ptorflaxendrosis 2.6% 5617 01-15-19
280 Sonique Hedgehog 2.6% 5618 01-15-19
281 FlandreScarlet9999vr 2.5% 5622 01-15-19
282 Zeldocto 2.5% 5624 01-15-19
283 KaM Mark MaK 2.4% 5628 01-15-19
284 BeeAwwb 2.4% 5629 01-15-19
285 ShadouZaHejjihoggu 2.3% 5635 01-15-19
286 darkstarblaze 2.3% 5636 01-15-19
287 Sarger001 2.2% 5640 01-15-19
288 Sonic The Star 2.2% 5643 01-15-19
289 darkersupershadic 2.2% 5644 01-15-19
290 SpiritDragon1995 2.1% 5645 01-15-19
291 sonic29887 2.0% 5651 01-15-19
292 Grady219 2.0% 5652 01-15-19
293 BioShadow 2.0% 5654 01-15-19
294 shadowblast63 Player Banned 1.9% 5657 01-15-19
295 Jawaah 1.9% 5658 01-15-19
296 Antek 1.9% 5661 01-15-19
297 Klaus 1.8% 5663 01-15-19
298 SkyBon 1.7% 5669 01-15-19
299 Shanekilz 1.4% 5685 01-15-19
300 isaihtb11 1.4% 5690 01-15-19
301 zaktu40 1.3% 5691 01-15-19
302 OhNoes! 1.3% 5692 01-15-19
303 gaara1234 1.3% 5694 01-15-19
304 S-MS32X-S 1.2% 5698 01-15-19
305 MastaToken 1.2% 5701 01-15-19
306 Mister_Slick 1.0% 5708 01-15-19
307 ArthurVGCP 1.0% 5709 01-15-19
308 Rush Hero 1.0% 5711 01-15-19
309 ChaosNexuss 1.0% 5712 01-15-19
309 Sonic06Fan 1.0% 5712 01-15-19
311 SonicMega167 0.9% 5717 01-15-19
312 oTaiIilLsS 0.9% 5719 01-15-19
313 gamed00d 0.8% 5720 01-15-19
314 SilverK 0.8% 5721 01-15-19
315 Heroes_Hater 0.7% 5729 01-15-19
316 Redd 0.6% 5731 01-15-19
317 Burningskull123 0.6% 5736 01-15-19
318 Sonicontherun 0.3% 5748 01-15-19
319 antiwwe 0.2% 5754 01-15-19
320 Iwannabelink 0.2% 5756 01-15-19
321 Genuine Hedgehog 0.2% 5757 01-15-19
321 SonataSpinDash 0.2% 5757 01-15-19
323 dragondragon18 0.1% 5761 01-15-19
324 SonicK100 0.1% 5763 01-15-19
325 Tyrouble 0.0% 5768 01-15-19
326 LancexExWx 0.0% 5771 01-15-19
326 neji_hyuuga 0.0% 5771 01-15-19
326 Over 0.0% 5771 01-15-19
326 sdj6707 Player Banned 0.0% 5771 01-15-19
326 Tran Sonic Fan Player Banned 0.0% 5771 01-15-19

This page is using the New Data Table System. [FUTURE]

Game ID: 3 | Category ID: 1
Hits: 9,193 | Hits This Month: 25 | DB Calls: 24 | Mem Usage: 5.88 MB | Time: 0.23s | Printable

The Sonic Center v3.9
Copyright 2003-2011 by The Sonic Center Team.